createdAt,value
2022-12-03T00:00:04.010Z,101033.69
2022-12-03T00:02:33.727Z,101042.53
2022-12-03T00:05:01.246Z,101033.75
2022-12-03T00:07:28.626Z,101042.97
2022-12-03T00:09:56.001Z,101041.81
2022-12-03T00:12:24.663Z,101040.41
2022-12-03T00:14:51.991Z,101031.72
2022-12-03T00:17:19.317Z,101036.94
2022-12-03T00:19:47.295Z,101027.16
2022-12-03T00:22:14.667Z,101018.91
2022-12-03T00:24:42.006Z,101023.31
2022-12-03T00:27:09.382Z,101026.97
2022-12-03T00:29:38.067Z,101026.78
2022-12-03T00:32:05.598Z,101015.88
2022-12-03T00:34:32.962Z,101020.38
2022-12-03T00:37:00.290Z,101022.19
2022-12-03T00:39:27.627Z,101016.72
2022-12-03T00:41:54.942Z,101021.06
2022-12-03T00:44:22.274Z,101022.59
2022-12-03T00:46:50.986Z,101022.28
2022-12-03T00:49:18.388Z,101022.97
2022-12-03T00:51:45.835Z,101021.41
2022-12-03T00:54:13.189Z,101027.16
2022-12-03T00:56:40.570Z,101014.59
2022-12-03T00:59:07.889Z,101017.13
2022-12-03T01:01:35.448Z,101023.91
2022-12-03T01:04:04.147Z,101016.16
2022-12-03T01:06:31.533Z,101018.75
2022-12-03T01:08:58.851Z,101029.84
2022-12-03T01:11:41.429Z,101024.34
2022-12-03T01:14:09.912Z,101014.69
2022-12-03T01:16:37.589Z,101016.41
2022-12-03T01:19:07.185Z,101014.72
2022-12-03T01:21:34.544Z,101021.88
2022-12-03T01:24:01.911Z,101013.09
2022-12-03T01:26:29.269Z,101005.91
2022-12-03T01:28:56.606Z,101008.75
2022-12-03T01:31:41.398Z,101014.84
2022-12-03T01:34:10.129Z,101009.41
2022-12-03T01:36:37.476Z,101010.75
2022-12-03T01:39:05.430Z,101006.53
2022-12-03T01:41:33.199Z,101012.28
2022-12-03T01:44:00.947Z,101008.75
2022-12-03T01:46:32.700Z,101022.16
2022-12-03T01:49:00.101Z,101017.25
2022-12-03T01:51:28.783Z,101008.78
2022-12-03T01:53:56.128Z,101005.19
2022-12-03T01:56:23.816Z,101006.13
2022-12-03T01:58:51.243Z,101002.34
2022-12-03T02:01:19.798Z,101001.59
2022-12-03T02:03:47.354Z,101005.91
2022-12-03T02:06:16.275Z,100998.72
2022-12-03T02:08:45.312Z,101006.56
2022-12-03T02:11:17.754Z,100998.00
2022-12-03T02:13:45.257Z,100992.78
2022-12-03T02:16:12.699Z,100994.72
2022-12-03T02:18:40.148Z,100988.38
2022-12-03T02:21:11.361Z,100995.53
2022-12-03T02:23:42.506Z,100994.53
2022-12-03T02:26:11.397Z,100995.34
2022-12-03T02:28:39.062Z,100997.97
2022-12-03T02:31:06.495Z,100995.22
2022-12-03T02:33:33.991Z,100991.09
2022-12-03T02:36:03.874Z,100996.94
2022-12-03T02:38:33.376Z,100990.03
2022-12-03T02:41:04.426Z,100990.66
2022-12-03T02:43:32.300Z,100990.34
2022-12-03T02:46:00.923Z,100985.19
2022-12-03T02:48:30.243Z,100988.03
2022-12-03T02:51:00.061Z,100990.34
2022-12-03T02:53:28.469Z,100987.75
2022-12-03T02:55:56.960Z,101001.81
2022-12-03T02:58:24.948Z,100989.72
2022-12-03T03:00:54.805Z,100996.69
2022-12-03T03:03:23.163Z,100990.06
2022-12-03T03:05:51.005Z,100989.72
2022-12-03T03:08:19.194Z,100991.34
2022-12-03T03:10:47.745Z,100997.31
2022-12-03T03:13:17.704Z,100993.00
2022-12-03T03:15:45.259Z,100990.06
2022-12-03T03:18:15.058Z,100990.22
2022-12-03T03:20:42.538Z,100990.13
2022-12-03T03:23:15.215Z,100989.63
2022-12-03T03:25:44.660Z,100990.25
2022-12-03T03:28:12.796Z,100994.47
2022-12-03T03:30:40.717Z,100989.25
2022-12-03T03:33:08.114Z,100991.00
2022-12-03T03:35:36.958Z,100993.28
2022-12-03T03:38:04.499Z,100983.53
2022-12-03T03:40:32.015Z,100986.66
2022-12-03T03:43:00.968Z,100979.69
2022-12-03T03:45:29.583Z,100984.88
2022-12-03T03:47:58.297Z,100985.81
2022-12-03T03:50:26.508Z,100982.03
2022-12-03T03:52:55.654Z,100983.81
2022-12-03T03:55:22.993Z,100986.88
2022-12-03T03:57:50.436Z,100982.13
2022-12-03T04:00:18.107Z,100983.09
2022-12-03T04:02:45.528Z,100977.59
2022-12-03T04:05:16.484Z,100973.44
2022-12-03T04:07:43.861Z,100982.41
2022-12-03T04:10:27.190Z,100975.25
2022-12-03T04:12:57.506Z,100978.31
2022-12-03T04:15:24.857Z,100978.16
2022-12-03T04:18:06.170Z,100977.94
2022-12-03T04:20:33.516Z,100969.94
2022-12-03T04:22:59.882Z,100969.75
2022-12-03T04:25:45.318Z,100968.88
2022-12-03T04:28:30.080Z,100968.22
2022-12-03T04:30:57.681Z,100967.59
2022-12-03T04:33:42.873Z,100964.41
2022-12-03T04:36:10.295Z,100970.34
2022-12-03T04:38:37.642Z,100972.00
2022-12-03T04:41:06.377Z,100965.84
2022-12-03T04:43:34.445Z,100962.53
2022-12-03T04:46:02.431Z,100969.41
2022-12-03T04:48:29.827Z,100970.91
2022-12-03T04:50:57.218Z,100976.97
2022-12-03T04:53:24.569Z,100981.34
2022-12-03T04:55:51.880Z,100977.88
2022-12-03T04:58:20.567Z,100976.38
2022-12-03T05:00:47.898Z,100975.34
2022-12-03T05:03:15.228Z,100976.91
2022-12-03T05:05:42.554Z,100973.47
2022-12-03T05:08:09.942Z,100971.66
2022-12-03T05:10:37.280Z,100970.81
2022-12-03T05:13:04.607Z,100962.63
2022-12-03T05:15:33.283Z,100956.50
2022-12-03T05:18:00.683Z,100957.44
2022-12-03T05:20:45.837Z,100957.59
2022-12-03T05:23:18.720Z,100954.28
2022-12-03T05:25:46.074Z,100961.25
2022-12-03T05:28:13.427Z,100958.06
2022-12-03T05:30:42.230Z,100956.91
2022-12-03T05:33:09.567Z,100951.44
2022-12-03T05:35:36.920Z,100947.00
2022-12-03T05:38:04.278Z,100951.06
2022-12-03T05:40:31.651Z,100949.94
2022-12-03T05:42:58.207Z,100944.66
2022-12-03T05:45:26.656Z,100944.75
2022-12-03T05:47:56.524Z,100939.16
2022-12-03T05:50:25.391Z,100943.31
2022-12-03T05:52:52.724Z,100935.69
2022-12-03T05:55:20.627Z,100945.22
2022-12-03T05:57:48.283Z,100939.06
2022-12-03T06:00:17.964Z,100947.00
2022-12-03T06:02:45.492Z,100950.72
2022-12-03T06:05:15.334Z,100944.59
2022-12-03T06:07:43.081Z,100956.78
2022-12-03T06:10:11.895Z,100947.78
2022-12-03T06:12:39.223Z,100954.06
2022-12-03T06:15:07.645Z,100947.78
2022-12-03T06:17:34.995Z,100947.94
2022-12-03T06:20:02.375Z,100948.88
2022-12-03T06:22:31.183Z,100937.94
2022-12-03T06:25:02.193Z,100944.50
2022-12-03T06:27:33.615Z,100950.38
2022-12-03T06:30:00.948Z,100945.00
2022-12-03T06:32:28.299Z,100943.94
2022-12-03T06:34:55.963Z,100948.69
2022-12-03T06:37:23.462Z,100947.53
2022-12-03T06:39:52.161Z,100945.81
2022-12-03T06:42:19.494Z,100946.69
2022-12-03T06:44:46.831Z,100945.06
2022-12-03T06:47:14.158Z,100951.50
2022-12-03T06:49:41.504Z,100945.22
2022-12-03T06:52:08.829Z,100944.38
2022-12-03T06:54:36.144Z,100947.63
2022-12-03T06:57:04.833Z,100949.25
2022-12-03T06:59:34.002Z,100952.09
2022-12-03T07:02:01.786Z,100951.94
2022-12-03T07:04:29.143Z,100954.41
2022-12-03T07:06:56.463Z,100952.81
2022-12-03T07:09:23.791Z,100950.47
2022-12-03T07:11:51.138Z,100952.81
2022-12-03T07:14:19.807Z,100944.78
2022-12-03T07:16:47.564Z,100947.50
2022-12-03T07:19:14.911Z,100948.47
2022-12-03T07:24:34.774Z,100951.34
2022-12-03T07:27:02.095Z,100949.34
2022-12-03T07:29:30.755Z,100947.66
2022-12-03T07:31:58.084Z,100943.91
2022-12-03T07:34:25.437Z,100951.00
2022-12-03T07:36:52.864Z,100954.28
2022-12-03T07:39:20.199Z,100945.44
2022-12-03T07:41:47.547Z,100948.78
2022-12-03T07:44:15.003Z,100953.34
2022-12-03T07:46:44.010Z,100950.56
2022-12-03T07:49:12.057Z,100947.81
2022-12-03T07:51:39.474Z,100947.63
2022-12-03T07:54:06.998Z,100951.09
2022-12-03T07:56:34.317Z,100946.53
2022-12-03T07:59:01.668Z,100941.25
2022-12-03T08:01:29.073Z,100945.53
2022-12-03T08:03:57.883Z,100936.78
2022-12-03T08:06:25.240Z,100938.47
2022-12-03T08:08:52.604Z,100942.06
2022-12-03T08:11:19.944Z,100940.25
2022-12-03T08:13:47.264Z,100939.31
2022-12-03T08:16:16.795Z,100940.16
2022-12-03T08:18:44.675Z,100935.72
2022-12-03T08:21:15.659Z,100941.94
2022-12-03T08:23:43.246Z,100933.84
2022-12-03T08:26:13.849Z,100930.78
2022-12-03T08:28:41.195Z,100928.31
2022-12-03T08:31:18.030Z,100927.25
2022-12-03T08:33:45.432Z,100922.09
2022-12-03T08:36:17.379Z,100925.47
2022-12-03T08:38:48.416Z,100924.53
2022-12-03T08:41:36.214Z,100918.53
2022-12-03T08:44:12.151Z,100930.91
2022-12-03T08:46:39.508Z,100929.09
2022-12-03T08:49:09.658Z,100934.63
2022-12-03T08:51:38.460Z,100930.91
2022-12-03T08:54:08.694Z,100939.56
2022-12-03T08:56:37.823Z,100938.88
2022-12-03T08:59:19.638Z,100939.94
2022-12-03T09:01:48.100Z,100941.63
2022-12-03T09:04:19.762Z,100946.31
2022-12-03T09:06:48.491Z,100947.19
2022-12-03T09:09:15.839Z,100933.69
2022-12-03T09:11:44.233Z,100933.56
2022-12-03T09:14:18.091Z,100941.16
2022-12-03T09:16:46.055Z,100936.41
2022-12-03T09:19:13.442Z,100937.19
2022-12-03T09:21:40.805Z,100938.38
2022-12-03T09:24:09.628Z,100934.75
2022-12-03T09:26:37.086Z,100927.88
2022-12-03T09:29:08.942Z,100937.44
2022-12-03T09:31:42.850Z,100927.69
2022-12-03T09:34:10.346Z,100939.94
2022-12-03T09:36:37.746Z,100934.56
2022-12-03T09:39:05.291Z,100930.19
2022-12-03T09:41:33.953Z,100926.19
2022-12-03T09:44:04.355Z,100929.50
2022-12-03T09:46:32.609Z,100925.94
2022-12-03T09:49:01.033Z,100933.88
2022-12-03T09:51:31.074Z,100938.72
2022-12-03T09:53:59.550Z,100931.75
2022-12-03T09:56:26.980Z,100926.31
2022-12-03T09:58:55.842Z,100918.44
2022-12-03T10:01:26.746Z,100925.78
2022-12-03T10:03:56.734Z,100919.16
2022-12-03T10:06:24.857Z,100924.28
2022-12-03T10:08:54.457Z,100923.38
2022-12-03T10:11:23.105Z,100918.69
2022-12-03T10:13:51.122Z,100914.34
2022-12-03T10:16:20.954Z,100906.22
2022-12-03T10:18:50.641Z,100916.69
2022-12-03T10:21:19.824Z,100905.94
2022-12-03T10:23:50.819Z,100908.44
2022-12-03T10:26:38.700Z,100898.78
2022-12-03T10:29:12.915Z,100895.19
2022-12-03T10:31:41.640Z,100894.63
2022-12-03T10:34:09.789Z,100891.06
2022-12-03T10:36:37.356Z,100895.47
2022-12-03T10:39:10.074Z,100888.22
2022-12-03T10:41:37.717Z,100883.81
2022-12-03T10:44:12.854Z,100887.56
2022-12-03T10:46:40.438Z,100878.31
2022-12-03T10:49:15.987Z,100878.50
2022-12-03T10:51:43.901Z,100884.06
2022-12-03T10:54:17.286Z,100887.69
2022-12-03T10:56:45.277Z,100881.19
2022-12-03T10:59:15.462Z,100876.09
2022-12-03T11:01:44.781Z,100883.19
2022-12-03T11:04:19.313Z,100886.81
2022-12-03T11:06:46.713Z,100886.13
2022-12-03T11:09:17.248Z,100884.72
2022-12-03T11:11:44.682Z,100883.81
2022-12-03T11:14:12.266Z,100878.38
2022-12-03T11:17:09.778Z,100874.63
2022-12-03T11:19:51.945Z,100874.31
2022-12-03T11:22:37.239Z,100869.53
2022-12-03T11:25:23.511Z,100869.47
2022-12-03T11:28:05.754Z,100859.81
2022-12-03T11:30:48.169Z,100864.72
2022-12-03T11:33:22.555Z,100853.47
2022-12-03T11:36:07.952Z,100856.59
2022-12-03T11:38:52.237Z,100849.72
2022-12-03T11:41:21.457Z,100851.97
2022-12-03T11:43:59.193Z,100850.56
2022-12-03T11:46:27.918Z,100843.19
2022-12-03T11:48:56.475Z,100847.75
2022-12-03T11:51:25.225Z,100843.97
2022-12-03T11:53:55.723Z,100837.03
2022-12-03T11:56:25.419Z,100835.81
2022-12-03T11:58:58.424Z,100830.47
2022-12-03T12:01:38.328Z,100833.06
2022-12-03T12:04:06.969Z,100839.13
2022-12-03T12:06:42.421Z,100836.34
2022-12-03T12:09:11.743Z,100829.13
2022-12-03T12:11:40.397Z,100823.69
2022-12-03T12:14:08.398Z,100823.84
2022-12-03T12:16:40.916Z,100830.22
2022-12-03T12:19:26.993Z,100832.78
2022-12-03T12:21:54.475Z,100829.13
2022-12-03T12:24:40.348Z,100825.41
2022-12-03T12:27:08.760Z,100821.16
2022-12-03T12:29:36.851Z,100819.31
2022-12-03T12:32:12.014Z,100807.25
2022-12-03T12:34:39.891Z,100808.03
2022-12-03T12:37:10.811Z,100807.50
2022-12-03T12:39:39.771Z,100803.09
2022-12-03T12:42:19.276Z,100802.28
2022-12-03T12:44:46.646Z,100796.56
2022-12-03T12:47:14.125Z,100801.19
2022-12-03T12:49:41.540Z,100795.06
2022-12-03T12:52:13.071Z,100785.28
2022-12-03T12:54:41.931Z,100778.94
2022-12-03T12:57:13.198Z,100779.88
2022-12-03T12:59:40.674Z,100773.44
2022-12-03T13:02:24.963Z,100769.81
2022-12-03T13:04:52.503Z,100777.50
2022-12-03T13:07:19.887Z,100766.28
2022-12-03T13:09:54.760Z,100774.25
2022-12-03T13:12:23.374Z,100772.03
2022-12-03T13:14:52.042Z,100772.72
2022-12-03T13:17:22.463Z,100772.06
2022-12-03T13:19:56.830Z,100769.78
2022-12-03T13:22:31.058Z,100768.38
2022-12-03T13:25:04.321Z,100766.84
2022-12-03T13:27:32.313Z,100763.06
2022-12-03T13:30:01.085Z,100768.81
2022-12-03T13:32:30.782Z,100762.78
2022-12-03T13:35:05.486Z,100760.25
2022-12-03T13:37:33.240Z,100759.91
2022-12-03T13:40:09.134Z,100763.50
2022-12-03T13:42:39.196Z,100775.28
2022-12-03T13:45:24.587Z,100767.06
2022-12-03T13:47:54.958Z,100762.22
2022-12-03T13:50:29.707Z,100777.28
2022-12-03T13:52:57.583Z,100765.44
2022-12-03T13:55:27.816Z,100767.06
2022-12-03T13:57:55.728Z,100758.19
2022-12-03T14:00:23.935Z,100762.69
2022-12-03T14:02:51.335Z,100761.53
2022-12-03T14:05:18.920Z,100765.47
2022-12-03T14:07:46.312Z,100765.47
2022-12-03T14:10:13.941Z,100762.53
2022-12-03T14:12:42.687Z,100760.91
2022-12-03T14:15:10.717Z,100764.81
2022-12-03T14:17:38.042Z,100756.91
2022-12-03T14:20:06.008Z,100752.94
2022-12-03T14:22:33.514Z,100768.13
2022-12-03T14:25:00.871Z,100761.97
2022-12-03T14:27:28.391Z,100756.69
2022-12-03T14:29:58.142Z,100764.91
2022-12-03T14:32:25.539Z,100761.97
2022-12-03T14:34:55.901Z,100760.91
2022-12-03T14:37:23.230Z,100757.25
2022-12-03T14:39:50.596Z,100760.16
2022-12-03T14:42:18.257Z,100763.38
2022-12-03T14:44:46.271Z,100753.28
2022-12-03T14:47:15.913Z,100765.41
2022-12-03T14:49:43.273Z,100760.38
2022-12-03T14:52:12.454Z,100777.72
2022-12-03T14:54:41.986Z,100758.41
2022-12-03T14:57:09.680Z,100761.81
2022-12-03T14:59:37.062Z,100764.69
2022-12-03T15:02:04.475Z,100768.19
2022-12-03T15:04:33.174Z,100764.69
2022-12-03T15:07:00.485Z,100766.66
2022-12-03T15:09:27.824Z,100768.69
2022-12-03T15:11:55.181Z,100766.84
2022-12-03T15:14:22.556Z,100766.03
2022-12-03T15:16:49.967Z,100760.22
2022-12-03T15:19:18.398Z,100764.88
2022-12-03T15:21:47.047Z,100760.50
2022-12-03T15:24:14.425Z,100764.94
2022-12-03T15:26:41.750Z,100769.41
2022-12-03T15:29:09.091Z,100761.41
2022-12-03T15:31:36.566Z,100765.66
2022-12-03T15:34:04.050Z,100768.06
2022-12-03T15:36:31.377Z,100775.47
2022-12-03T15:39:00.092Z,100762.16
2022-12-03T15:41:29.801Z,100762.38
2022-12-03T15:43:58.175Z,100759.56
2022-12-03T15:46:26.022Z,100761.75
2022-12-03T15:48:53.514Z,100763.41
2022-12-03T15:51:21.166Z,100761.41
2022-12-03T15:53:48.527Z,100755.06
2022-12-03T15:56:17.170Z,100752.41
2022-12-03T15:58:44.550Z,100764.97
2022-12-03T16:01:13.313Z,100759.50
2022-12-03T16:03:41.246Z,100757.56
2022-12-03T16:06:08.738Z,100756.56
2022-12-03T16:08:36.076Z,100763.00
2022-12-03T16:11:03.399Z,100759.63
2022-12-03T16:13:32.086Z,100760.78
2022-12-03T16:15:59.474Z,100754.00
2022-12-03T16:18:26.847Z,100749.53
2022-12-03T16:20:54.186Z,100755.53
2022-12-03T16:23:21.526Z,100756.88
2022-12-03T16:25:48.879Z,100764.97
2022-12-03T16:28:16.207Z,100757.13
2022-12-03T16:30:44.894Z,100755.22
2022-12-03T16:33:12.246Z,100754.31
2022-12-03T16:35:39.710Z,100749.22
2022-12-03T16:38:07.133Z,100743.88
2022-12-03T16:40:34.445Z,100756.34
2022-12-03T16:43:03.275Z,100753.88
2022-12-03T16:46:02.291Z,100751.03
2022-12-03T16:48:31.093Z,100747.91
2022-12-03T16:50:58.409Z,100751.19
2022-12-03T16:53:25.751Z,100741.75
2022-12-03T16:55:53.088Z,100744.09
2022-12-03T16:58:21.289Z,100751.34
2022-12-03T17:00:48.782Z,100742.28
2022-12-03T17:03:17.637Z,100740.63
2022-12-03T17:05:46.734Z,100740.59
2022-12-03T17:08:14.651Z,100739.69
2022-12-03T17:10:42.282Z,100739.63
2022-12-03T17:13:10.710Z,100742.19
2022-12-03T17:15:38.759Z,100742.19
2022-12-03T17:18:06.846Z,100746.59
2022-12-03T17:20:34.730Z,100739.63
2022-12-03T17:23:03.670Z,100739.72
2022-12-03T17:25:31.055Z,100734.28
2022-12-03T17:27:58.428Z,100734.31
2022-12-03T17:30:25.773Z,100738.44
2022-12-03T17:32:53.101Z,100730.09
2022-12-03T17:35:20.491Z,100725.50
2022-12-03T17:37:47.820Z,100731.31
2022-12-03T17:40:17.121Z,100721.41
2022-12-03T17:42:44.510Z,100727.28
2022-12-03T17:45:26.892Z,100718.41
2022-12-03T17:47:54.221Z,100724.38
2022-12-03T17:50:21.564Z,100722.34
2022-12-03T17:52:48.886Z,100713.41
2022-12-03T17:55:26.794Z,100721.69
2022-12-03T17:57:58.683Z,100718.41
2022-12-03T18:00:26.036Z,100714.81
2022-12-03T18:02:53.365Z,100715.19
2022-12-03T18:05:20.844Z,100714.00
2022-12-03T18:07:48.318Z,100713.09
2022-12-03T18:10:16.042Z,100711.22
2022-12-03T18:12:44.747Z,100708.59
2022-12-03T18:15:12.299Z,100705.13
2022-12-03T18:17:39.650Z,100702.19
2022-12-03T18:20:07.767Z,100702.97
2022-12-03T18:22:35.159Z,100709.09
2022-12-03T18:25:02.559Z,100710.25
2022-12-03T18:27:29.966Z,100712.13
2022-12-03T18:29:58.705Z,100708.13
2022-12-03T18:32:29.334Z,100713.88
2022-12-03T18:34:57.345Z,100711.13
2022-12-03T18:37:26.949Z,100715.47
2022-12-03T18:39:54.654Z,100713.72
2022-12-03T18:42:23.044Z,100720.78
2022-12-03T18:44:51.531Z,100712.78
2022-12-03T18:47:21.211Z,100711.94
2022-12-03T18:49:48.951Z,100711.09
2022-12-03T18:52:17.052Z,100713.72
2022-12-03T18:54:44.540Z,100705.75
2022-12-03T18:57:11.879Z,100699.50
2022-12-03T18:59:41.578Z,100708.50
2022-12-03T19:02:12.926Z,100707.31
2022-12-03T19:04:41.683Z,100705.59
2022-12-03T19:07:09.550Z,100709.09
2022-12-03T19:09:36.939Z,100709.94
2022-12-03T19:12:05.289Z,100717.38
2022-12-03T19:14:35.010Z,100708.28
2022-12-03T19:17:02.363Z,100710.25
2022-12-03T19:19:29.940Z,100713.09
2022-12-03T19:21:58.661Z,100712.22
2022-12-03T19:24:26.075Z,100708.69
2022-12-03T19:26:55.299Z,100715.75
2022-12-03T19:29:23.285Z,100708.69
2022-12-03T19:31:50.918Z,100704.00
2022-12-03T19:34:18.461Z,100702.44
2022-12-03T19:36:46.090Z,100708.69
2022-12-03T19:39:14.872Z,100710.63
2022-12-03T19:41:43.666Z,100705.94
2022-12-03T19:44:12.965Z,100707.75
2022-12-03T19:46:40.292Z,100716.25
2022-12-03T19:49:07.932Z,100720.56
2022-12-03T19:51:36.121Z,100720.72
2022-12-03T19:54:04.245Z,100714.25
2022-12-03T19:56:32.938Z,100710.78
2022-12-03T19:59:00.302Z,100712.56
2022-12-03T20:01:28.572Z,100716.13
2022-12-03T20:03:56.870Z,100710.59
2022-12-03T20:06:25.337Z,100705.34
2022-12-03T20:08:56.081Z,100708.16
2022-12-03T20:11:25.035Z,100708.88
2022-12-03T20:13:55.274Z,100711.38
2022-12-03T20:16:23.025Z,100711.38
2022-12-03T20:18:50.855Z,100711.44
2022-12-03T20:21:19.059Z,100710.41
2022-12-03T20:23:46.811Z,100706.13
2022-12-03T20:26:15.000Z,100714.78
2022-12-03T20:28:42.406Z,100705.19
2022-12-03T20:31:13.389Z,100708.00
2022-12-03T20:33:41.821Z,100704.59
2022-12-03T20:36:10.175Z,100705.34
2022-12-03T20:38:37.723Z,100694.31
2022-12-03T20:41:05.906Z,100700.13
2022-12-03T20:43:33.245Z,100696.72
2022-12-03T20:46:06.850Z,100693.88
2022-12-03T20:48:35.785Z,100693.69
2022-12-03T20:51:04.163Z,100700.59
2022-12-03T20:53:35.507Z,100695.28
2022-12-03T20:56:03.297Z,100692.78
2022-12-03T20:58:30.924Z,100689.41
2022-12-03T21:01:12.533Z,100685.25
2022-12-03T21:03:44.629Z,100689.84
2022-12-03T21:06:12.370Z,100700.16
2022-12-03T21:08:41.961Z,100693.00
2022-12-03T21:11:10.204Z,100694.72
2022-12-03T21:13:40.970Z,100700.16
2022-12-03T21:16:09.467Z,100698.50
2022-12-03T21:18:36.893Z,100694.06
2022-12-03T21:21:09.483Z,100691.56
2022-12-03T21:23:36.813Z,100687.59
2022-12-03T21:26:08.485Z,100695.66
2022-12-03T21:28:36.032Z,100688.50
2022-12-03T21:31:04.561Z,100684.09
2022-12-03T21:33:32.365Z,100684.63
2022-12-03T21:36:00.233Z,100683.63
2022-12-03T21:38:29.299Z,100678.38
2022-12-03T21:40:57.026Z,100679.75
2022-12-03T21:43:24.572Z,100676.56
2022-12-03T21:45:52.515Z,100681.59
2022-12-03T21:48:20.465Z,100683.41
2022-12-03T21:51:00.046Z,100681.50
2022-12-03T21:53:28.896Z,100688.03
2022-12-03T21:55:56.424Z,100685.38
2022-12-03T21:58:23.767Z,100681.19
2022-12-03T22:00:51.184Z,100685.25
2022-12-03T22:03:18.786Z,100682.44
2022-12-03T22:05:46.122Z,100680.56
2022-12-03T22:08:13.770Z,100683.22
2022-12-03T22:10:42.698Z,100684.00
2022-12-03T22:13:10.055Z,100681.28
2022-12-03T22:15:38.745Z,100683.13
2022-12-03T22:18:06.266Z,100682.22
2022-12-03T22:20:33.633Z,100677.50
2022-12-03T22:23:01.100Z,100678.53
2022-12-03T22:25:28.665Z,100679.41
2022-12-03T22:27:57.330Z,100678.44
2022-12-03T22:30:24.694Z,100683.69
2022-12-03T22:32:52.069Z,100678.31
2022-12-03T22:35:19.420Z,100676.44
2022-12-03T22:37:46.755Z,100679.03
2022-12-03T22:40:14.223Z,100674.63
2022-12-03T22:42:44.040Z,100668.25
2022-12-03T22:45:16.544Z,100669.66
2022-12-03T22:47:43.911Z,100661.81
2022-12-03T22:50:11.533Z,100657.97
2022-12-03T22:52:38.850Z,100669.81
2022-12-03T22:55:06.663Z,100665.28
2022-12-03T22:57:34.008Z,100665.31
2022-12-03T23:00:01.331Z,100654.88
2022-12-03T23:02:30.050Z,100652.97
2022-12-03T23:04:57.421Z,100663.66
2022-12-03T23:07:24.859Z,100649.63
2022-12-03T23:09:52.361Z,100651.22
2022-12-03T23:12:19.819Z,100645.91
2022-12-03T23:14:47.176Z,100634.97
2022-12-03T23:17:14.511Z,100630.41
2022-12-03T23:19:43.251Z,100637.91
2022-12-03T23:22:10.562Z,100634.88
2022-12-03T23:24:38.025Z,100635.31
2022-12-03T23:27:05.426Z,100633.31
2022-12-03T23:29:34.925Z,100634.03
2022-12-03T23:32:02.255Z,100628.75
2022-12-03T23:34:29.643Z,100632.34
2022-12-03T23:36:58.352Z,100626.84
2022-12-03T23:39:25.680Z,100615.09
2022-12-03T23:41:53.151Z,100613.34
2022-12-03T23:44:20.500Z,100606.06
2022-12-03T23:46:47.992Z,100611.47
2022-12-03T23:49:15.370Z,100614.97
2022-12-03T23:51:42.702Z,100609.19
2022-12-03T23:54:12.142Z,100617.75
2022-12-03T23:56:40.882Z,100610.59
2022-12-03T23:59:08.185Z,100613.31
